sensor_id;sensor_type;location;lat;lon;timestamp;P1;durP1;ratioP1;P2;durP2;ratioP2
53056;SDS011;38940;50.096;4.012;2023-04-06T00:00:37;18.58;;;8.02;;
53056;SDS011;38940;50.096;4.012;2023-04-06T00:03:03;19.17;;;8.50;;
53056;SDS011;38940;50.096;4.012;2023-04-06T00:05:29;15.85;;;8.10;;
53056;SDS011;38940;50.096;4.012;2023-04-06T00:07:56;20.05;;;8.50;;
53056;SDS011;38940;50.096;4.012;2023-04-06T00:10:22;16.23;;;8.15;;
53056;SDS011;38940;50.096;4.012;2023-04-06T00:12:48;21.73;;;8.63;;
53056;SDS011;38940;50.096;4.012;2023-04-06T00:15:14;18.27;;;8.75;;
53056;SDS011;38940;50.096;4.012;2023-04-06T00:17:40;17.00;;;8.68;;
53056;SDS011;38940;50.096;4.012;2023-04-06T00:20:07;15.35;;;8.35;;
53056;SDS011;38940;50.096;4.012;2023-04-06T00:22:33;17.98;;;8.57;;
53056;SDS011;38940;50.096;4.012;2023-04-06T00:24:59;19.13;;;8.10;;
53056;SDS011;38940;50.096;4.012;2023-04-06T00:27:25;18.65;;;9.20;;
53056;SDS011;38940;50.096;4.012;2023-04-06T00:29:51;19.55;;;8.55;;
53056;SDS011;38940;50.096;4.012;2023-04-06T00:32:17;16.90;;;8.45;;
53056;SDS011;38940;50.096;4.012;2023-04-06T00:34:43;18.92;;;8.63;;
53056;SDS011;38940;50.096;4.012;2023-04-06T00:37:10;17.77;;;8.63;;
53056;SDS011;38940;50.096;4.012;2023-04-06T00:39:37;16.77;;;8.57;;
53056;SDS011;38940;50.096;4.012;2023-04-06T00:42:06;15.80;;;8.05;;
53056;SDS011;38940;50.096;4.012;2023-04-06T00:44:33;20.73;;;8.75;;
53056;SDS011;38940;50.096;4.012;2023-04-06T00:46:59;16.25;;;7.60;;
53056;SDS011;38940;50.096;4.012;2023-04-06T00:49:25;18.40;;;8.40;;
53056;SDS011;38940;50.096;4.012;2023-04-06T00:51:52;19.35;;;8.20;;
53056;SDS011;38940;50.096;4.012;2023-04-06T00:54:18;18.30;;;7.85;;
53056;SDS011;38940;50.096;4.012;2023-04-06T00:56:44;16.17;;;7.97;;
53056;SDS011;38940;50.096;4.012;2023-04-06T00:59:10;17.95;;;8.10;;
53056;SDS011;38940;50.096;4.012;2023-04-06T01:01:37;14.10;;;7.10;;
53056;SDS011;38940;50.096;4.012;2023-04-06T01:04:03;16.25;;;7.45;;
53056;SDS011;38940;50.096;4.012;2023-04-06T01:06:29;16.10;;;8.20;;
53056;SDS011;38940;50.096;4.012;2023-04-06T01:08:55;16.02;;;7.85;;
53056;SDS011;38940;50.096;4.012;2023-04-06T01:11:21;17.25;;;8.00;;
53056;SDS011;38940;50.096;4.012;2023-04-06T01:13:47;18.88;;;7.70;;
53056;SDS011;38940;50.096;4.012;2023-04-06T01:16:13;18.95;;;7.68;;
53056;SDS011;38940;50.096;4.012;2023-04-06T01:18:40;16.40;;;7.80;;
53056;SDS011;38940;50.096;4.012;2023-04-06T01:21:07;17.70;;;7.97;;
53056;SDS011;38940;50.096;4.012;2023-04-06T01:23:34;16.85;;;7.78;;
53056;SDS011;38940;50.096;4.012;2023-04-06T01:26:00;18.90;;;7.60;;
53056;SDS011;38940;50.096;4.012;2023-04-06T01:28:26;19.38;;;7.93;;
53056;SDS011;38940;50.096;4.012;2023-04-06T01:30:52;22.17;;;9.70;;
53056;SDS011;38940;50.096;4.012;2023-04-06T01:33:18;20.83;;;8.93;;
53056;SDS011;38940;50.096;4.012;2023-04-06T01:35:44;20.60;;;8.40;;
53056;SDS011;38940;50.096;4.012;2023-04-06T01:38:10;21.50;;;8.23;;
53056;SDS011;38940;50.096;4.012;2023-04-06T01:40:36;22.48;;;8.68;;
53056;SDS011;38940;50.096;4.012;2023-04-06T01:43:02;21.40;;;8.48;;
53056;SDS011;38940;50.096;4.012;2023-04-06T01:45:28;16.80;;;7.90;;
53056;SDS011;38940;50.096;4.012;2023-04-06T01:47:54;18.40;;;7.05;;
53056;SDS011;38940;50.096;4.012;2023-04-06T01:50:20;18.17;;;7.18;;
53056;SDS011;38940;50.096;4.012;2023-04-06T01:52:46;18.00;;;7.70;;
53056;SDS011;38940;50.096;4.012;2023-04-06T01:55:12;19.92;;;7.50;;
53056;SDS011;38940;50.096;4.012;2023-04-06T01:57:38;17.25;;;7.18;;
53056;SDS011;38940;50.096;4.012;2023-04-06T02:00:04;18.35;;;7.40;;
53056;SDS011;38940;50.096;4.012;2023-04-06T02:02:30;17.67;;;7.47;;
53056;SDS011;38940;50.096;4.012;2023-04-06T02:04:56;19.02;;;7.07;;
53056;SDS011;38940;50.096;4.012;2023-04-06T02:07:22;19.17;;;7.38;;
53056;SDS011;38940;50.096;4.012;2023-04-06T02:09:48;18.98;;;7.20;;
53056;SDS011;38940;50.096;4.012;2023-04-06T02:12:14;15.77;;;7.15;;
53056;SDS011;38940;50.096;4.012;2023-04-06T02:14:40;16.47;;;7.03;;
53056;SDS011;38940;50.096;4.012;2023-04-06T02:17:06;18.17;;;7.03;;
53056;SDS011;38940;50.096;4.012;2023-04-06T02:19:32;16.75;;;6.95;;
53056;SDS011;38940;50.096;4.012;2023-04-06T02:21:58;15.85;;;7.60;;
53056;SDS011;38940;50.096;4.012;2023-04-06T02:24:25;16.10;;;6.85;;
53056;SDS011;38940;50.096;4.012;2023-04-06T02:26:51;14.77;;;6.95;;
53056;SDS011;38940;50.096;4.012;2023-04-06T02:29:17;15.90;;;7.60;;
53056;SDS011;38940;50.096;4.012;2023-04-06T02:31:43;13.50;;;6.70;;
53056;SDS011;38940;50.096;4.012;2023-04-06T02:34:09;17.75;;;6.80;;
53056;SDS011;38940;50.096;4.012;2023-04-06T02:36:37;16.13;;;6.73;;
53056;SDS011;38940;50.096;4.012;2023-04-06T02:39:03;16.70;;;6.70;;
53056;SDS011;38940;50.096;4.012;2023-04-06T02:41:29;15.68;;;6.57;;
53056;SDS011;38940;50.096;4.012;2023-04-06T02:43:55;15.05;;;6.43;;
53056;SDS011;38940;50.096;4.012;2023-04-06T02:46:20;12.38;;;6.10;;
53056;SDS011;38940;50.096;4.012;2023-04-06T02:48:47;16.80;;;6.03;;
53056;SDS011;38940;50.096;4.012;2023-04-06T02:51:12;15.88;;;6.72;;
53056;SDS011;38940;50.096;4.012;2023-04-06T02:53:38;15.00;;;6.22;;
53056;SDS011;38940;50.096;4.012;2023-04-06T02:56:05;13.97;;;6.37;;
53056;SDS011;38940;50.096;4.012;2023-04-06T02:58:31;18.33;;;6.78;;
53056;SDS011;38940;50.096;4.012;2023-04-06T03:00:57;13.48;;;6.10;;
53056;SDS011;38940;50.096;4.012;2023-04-06T03:03:23;12.25;;;5.90;;
53056;SDS011;38940;50.096;4.012;2023-04-06T03:05:50;14.27;;;6.28;;
53056;SDS011;38940;50.096;4.012;2023-04-06T03:08:16;15.45;;;6.53;;
53056;SDS011;38940;50.096;4.012;2023-04-06T03:10:42;12.75;;;6.00;;
53056;SDS011;38940;50.096;4.012;2023-04-06T03:13:08;14.68;;;6.35;;
53056;SDS011;38940;50.096;4.012;2023-04-06T03:15:34;12.38;;;5.88;;
53056;SDS011;38940;50.096;4.012;2023-04-06T03:18:00;15.60;;;5.97;;
53056;SDS011;38940;50.096;4.012;2023-04-06T03:20:26;11.93;;;6.10;;
53056;SDS011;38940;50.096;4.012;2023-04-06T03:22:52;15.35;;;6.85;;
53056;SDS011;38940;50.096;4.012;2023-04-06T03:25:24;14.50;;;6.53;;
53056;SDS011;38940;50.096;4.012;2023-04-06T03:27:50;16.58;;;6.65;;
53056;SDS011;38940;50.096;4.012;2023-04-06T03:30:16;12.90;;;6.00;;
53056;SDS011;38940;50.096;4.012;2023-04-06T03:32:43;12.15;;;6.32;;
53056;SDS011;38940;50.096;4.012;2023-04-06T03:35:09;11.70;;;6.20;;
53056;SDS011;38940;50.096;4.012;2023-04-06T03:37:36;11.70;;;5.75;;
53056;SDS011;38940;50.096;4.012;2023-04-06T03:40:02;12.10;;;6.07;;
53056;SDS011;38940;50.096;4.012;2023-04-06T03:42:28;11.93;;;5.53;;
53056;SDS011;38940;50.096;4.012;2023-04-06T03:44:54;15.30;;;6.45;;
53056;SDS011;38940;50.096;4.012;2023-04-06T03:47:20;16.38;;;6.47;;
53056;SDS011;38940;50.096;4.012;2023-04-06T03:49:46;15.35;;;6.28;;
53056;SDS011;38940;50.096;4.012;2023-04-06T03:52:12;14.13;;;5.68;;
53056;SDS011;38940;50.096;4.012;2023-04-06T03:54:38;13.20;;;6.07;;
53056;SDS011;38940;50.096;4.012;2023-04-06T03:57:04;14.43;;;6.60;;
53056;SDS011;38940;50.096;4.012;2023-04-06T03:59:30;12.98;;;5.85;;
53056;SDS011;38940;50.096;4.012;2023-04-06T04:01:56;13.98;;;6.32;;
53056;SDS011;38940;50.096;4.012;2023-04-06T04:04:22;14.60;;;6.28;;
53056;SDS011;38940;50.096;4.012;2023-04-06T04:06:48;14.95;;;6.10;;
53056;SDS011;38940;50.096;4.012;2023-04-06T04:09:14;13.85;;;5.75;;
53056;SDS011;38940;50.096;4.012;2023-04-06T04:11:40;11.35;;;5.85;;
53056;SDS011;38940;50.096;4.012;2023-04-06T04:14:06;12.18;;;6.18;;
53056;SDS011;38940;50.096;4.012;2023-04-06T04:16:33;14.10;;;6.32;;
53056;SDS011;38940;50.096;4.012;2023-04-06T04:18:59;14.57;;;6.38;;
53056;SDS011;38940;50.096;4.012;2023-04-06T04:21:25;16.27;;;6.85;;
53056;SDS011;38940;50.096;4.012;2023-04-06T04:23:51;14.90;;;6.50;;
53056;SDS011;38940;50.096;4.012;2023-04-06T04:26:17;14.30;;;6.82;;
53056;SDS011;38940;50.096;4.012;2023-04-06T04:28:43;15.73;;;6.50;;
53056;SDS011;38940;50.096;4.012;2023-04-06T04:31:10;14.63;;;6.65;;
53056;SDS011;38940;50.096;4.012;2023-04-06T04:33:36;16.30;;;6.70;;
53056;SDS011;38940;50.096;4.012;2023-04-06T04:36:02;15.02;;;6.65;;
53056;SDS011;38940;50.096;4.012;2023-04-06T04:38:28;14.00;;;6.93;;
53056;SDS011;38940;50.096;4.012;2023-04-06T04:40:54;12.63;;;6.85;;
53056;SDS011;38940;50.096;4.012;2023-04-06T04:43:20;13.35;;;6.95;;
53056;SDS011;38940;50.096;4.012;2023-04-06T04:45:46;17.98;;;6.60;;
53056;SDS011;38940;50.096;4.012;2023-04-06T04:48:12;13.98;;;7.05;;
53056;SDS011;38940;50.096;4.012;2023-04-06T04:50:38;13.10;;;6.75;;
53056;SDS011;38940;50.096;4.012;2023-04-06T04:53:04;13.57;;;6.78;;
53056;SDS011;38940;50.096;4.012;2023-04-06T04:55:31;15.88;;;6.90;;
53056;SDS011;38940;50.096;4.012;2023-04-06T04:57:57;16.48;;;7.28;;
53056;SDS011;38940;50.096;4.012;2023-04-06T05:00:23;13.65;;;6.93;;
53056;SDS011;38940;50.096;4.012;2023-04-06T05:02:49;12.88;;;6.80;;
53056;SDS011;38940;50.096;4.012;2023-04-06T05:05:15;13.93;;;7.25;;
53056;SDS011;38940;50.096;4.012;2023-04-06T05:07:41;19.52;;;7.57;;
53056;SDS011;38940;50.096;4.012;2023-04-06T05:10:07;18.92;;;7.72;;
53056;SDS011;38940;50.096;4.012;2023-04-06T05:12:33;16.67;;;8.40;;
53056;SDS011;38940;50.096;4.012;2023-04-06T05:14:59;18.80;;;8.77;;
53056;SDS011;38940;50.096;4.012;2023-04-06T05:17:25;14.53;;;7.33;;
53056;SDS011;38940;50.096;4.012;2023-04-06T05:19:51;14.35;;;6.93;;
53056;SDS011;38940;50.096;4.012;2023-04-06T05:22:17;15.32;;;6.90;;
53056;SDS011;38940;50.096;4.012;2023-04-06T05:24:43;14.02;;;6.93;;
53056;SDS011;38940;50.096;4.012;2023-04-06T05:27:09;13.90;;;7.05;;
53056;SDS011;38940;50.096;4.012;2023-04-06T05:29:36;16.00;;;7.03;;
53056;SDS011;38940;50.096;4.012;2023-04-06T05:32:02;13.07;;;6.75;;
53056;SDS011;38940;50.096;4.012;2023-04-06T05:34:28;13.30;;;7.05;;
53056;SDS011;38940;50.096;4.012;2023-04-06T05:36:54;16.00;;;7.45;;
53056;SDS011;38940;50.096;4.012;2023-04-06T05:39:20;15.07;;;7.70;;
53056;SDS011;38940;50.096;4.012;2023-04-06T05:41:46;12.43;;;6.78;;
53056;SDS011;38940;50.096;4.012;2023-04-06T05:44:12;13.52;;;7.53;;
53056;SDS011;38940;50.096;4.012;2023-04-06T05:46:38;16.15;;;7.15;;
53056;SDS011;38940;50.096;4.012;2023-04-06T05:49:04;14.63;;;7.50;;
53056;SDS011;38940;50.096;4.012;2023-04-06T05:51:30;13.10;;;7.00;;
53056;SDS011;38940;50.096;4.012;2023-04-06T05:53:56;12.88;;;7.20;;
53056;SDS011;38940;50.096;4.012;2023-04-06T05:56:23;12.52;;;6.88;;
53056;SDS011;38940;50.096;4.012;2023-04-06T05:58:50;15.07;;;7.10;;
53056;SDS011;38940;50.096;4.012;2023-04-06T06:01:16;15.88;;;7.50;;
53056;SDS011;38940;50.096;4.012;2023-04-06T06:03:42;16.13;;;7.28;;
53056;SDS011;38940;50.096;4.012;2023-04-06T06:06:08;17.42;;;7.43;;
53056;SDS011;38940;50.096;4.012;2023-04-06T06:08:34;16.92;;;7.07;;
53056;SDS011;38940;50.096;4.012;2023-04-06T06:11:01;14.73;;;7.53;;
53056;SDS011;38940;50.096;4.012;2023-04-06T06:13:27;15.30;;;7.55;;
53056;SDS011;38940;50.096;4.012;2023-04-06T06:15:53;14.47;;;7.53;;
53056;SDS011;38940;50.096;4.012;2023-04-06T06:18:19;12.55;;;6.85;;
53056;SDS011;38940;50.096;4.012;2023-04-06T06:20:45;16.00;;;7.60;;
53056;SDS011;38940;50.096;4.012;2023-04-06T06:23:11;12.93;;;7.30;;
53056;SDS011;38940;50.096;4.012;2023-04-06T06:25:37;13.13;;;7.45;;
53056;SDS011;38940;50.096;4.012;2023-04-06T06:28:03;13.60;;;7.72;;
53056;SDS011;38940;50.096;4.012;2023-04-06T06:30:30;12.90;;;7.07;;
53056;SDS011;38940;50.096;4.012;2023-04-06T06:32:56;18.27;;;8.45;;
53056;SDS011;38940;50.096;4.012;2023-04-06T06:35:22;14.75;;;8.05;;
53056;SDS011;38940;50.096;4.012;2023-04-06T06:37:48;16.67;;;8.50;;
53056;SDS011;38940;50.096;4.012;2023-04-06T06:40:14;14.13;;;8.13;;
53056;SDS011;38940;50.096;4.012;2023-04-06T06:42:42;15.73;;;8.13;;
53056;SDS011;38940;50.096;4.012;2023-04-06T06:45:08;16.30;;;7.97;;
53056;SDS011;38940;50.096;4.012;2023-04-06T06:47:35;14.83;;;8.33;;
53056;SDS011;38940;50.096;4.012;2023-04-06T06:50:01;14.83;;;7.47;;
53056;SDS011;38940;50.096;4.012;2023-04-06T06:52:28;16.20;;;7.63;;
53056;SDS011;38940;50.096;4.012;2023-04-06T06:54:54;14.82;;;7.82;;
53056;SDS011;38940;50.096;4.012;2023-04-06T06:57:21;15.60;;;8.05;;
53056;SDS011;38940;50.096;4.012;2023-04-06T06:59:47;14.20;;;7.57;;
53056;SDS011;38940;50.096;4.012;2023-04-06T07:02:13;12.63;;;7.22;;
53056;SDS011;38940;50.096;4.012;2023-04-06T07:04:39;14.77;;;7.20;;
53056;SDS011;38940;50.096;4.012;2023-04-06T07:07:05;13.20;;;7.32;;
53056;SDS011;38940;50.096;4.012;2023-04-06T07:09:31;14.90;;;7.55;;
53056;SDS011;38940;50.096;4.012;2023-04-06T07:11:58;16.88;;;7.53;;
53056;SDS011;38940;50.096;4.012;2023-04-06T07:14:24;14.25;;;7.53;;
53056;SDS011;38940;50.096;4.012;2023-04-06T07:16:51;14.95;;;7.90;;
53056;SDS011;38940;50.096;4.012;2023-04-06T07:19:17;13.85;;;7.22;;
53056;SDS011;38940;50.096;4.012;2023-04-06T07:21:43;14.98;;;8.15;;
53056;SDS011;38940;50.096;4.012;2023-04-06T07:24:09;16.35;;;7.20;;
53056;SDS011;38940;50.096;4.012;2023-04-06T07:26:35;23.67;;;8.25;;
53056;SDS011;38940;50.096;4.012;2023-04-06T07:29:01;14.65;;;7.53;;
53056;SDS011;38940;50.096;4.012;2023-04-06T07:31:27;15.15;;;8.02;;
53056;SDS011;38940;50.096;4.012;2023-04-06T07:33:53;17.63;;;8.15;;
53056;SDS011;38940;50.096;4.012;2023-04-06T07:36:20;14.00;;;7.30;;
53056;SDS011;38940;50.096;4.012;2023-04-06T07:38:46;19.60;;;9.00;;
53056;SDS011;38940;50.096;4.012;2023-04-06T07:41:12;15.68;;;7.75;;
53056;SDS011;38940;50.096;4.012;2023-04-06T07:43:38;15.57;;;8.35;;
53056;SDS011;38940;50.096;4.012;2023-04-06T07:46:04;13.75;;;8.05;;
53056;SDS011;38940;50.096;4.012;2023-04-06T07:48:30;14.68;;;8.10;;
53056;SDS011;38940;50.096;4.012;2023-04-06T07:51:02;14.80;;;8.73;;
53056;SDS011;38940;50.096;4.012;2023-04-06T07:53:28;15.10;;;8.15;;
53056;SDS011;38940;50.096;4.012;2023-04-06T07:55:55;16.15;;;8.63;;
53056;SDS011;38940;50.096;4.012;2023-04-06T07:58:21;18.92;;;11.35;;
53056;SDS011;38940;50.096;4.012;2023-04-06T08:00:47;14.75;;;9.23;;
53056;SDS011;38940;50.096;4.012;2023-04-06T08:03:13;13.88;;;8.40;;
53056;SDS011;38940;50.096;4.012;2023-04-06T08:05:39;16.00;;;7.88;;
53056;SDS011;38940;50.096;4.012;2023-04-06T08:08:05;14.90;;;8.25;;
53056;SDS011;38940;50.096;4.012;2023-04-06T08:10:31;16.27;;;8.48;;
53056;SDS011;38940;50.096;4.012;2023-04-06T08:12:59;13.25;;;7.68;;
53056;SDS011;38940;50.096;4.012;2023-04-06T08:15:27;16.58;;;8.48;;
53056;SDS011;38940;50.096;4.012;2023-04-06T08:17:53;15.80;;;7.60;;
53056;SDS011;38940;50.096;4.012;2023-04-06T08:20:22;13.82;;;7.88;;
53056;SDS011;38940;50.096;4.012;2023-04-06T08:22:48;14.77;;;7.68;;
53056;SDS011;38940;50.096;4.012;2023-04-06T08:25:14;14.88;;;7.90;;
53056;SDS011;38940;50.096;4.012;2023-04-06T08:27:40;18.77;;;10.10;;
53056;SDS011;38940;50.096;4.012;2023-04-06T08:30:06;22.80;;;8.43;;
53056;SDS011;38940;50.096;4.012;2023-04-06T08:32:32;15.83;;;7.57;;
53056;SDS011;38940;50.096;4.012;2023-04-06T08:34:58;13.43;;;7.37;;
53056;SDS011;38940;50.096;4.012;2023-04-06T08:37:24;15.57;;;8.30;;
53056;SDS011;38940;50.096;4.012;2023-04-06T08:39:50;14.10;;;7.43;;
53056;SDS011;38940;50.096;4.012;2023-04-06T08:42:18;15.37;;;8.17;;
53056;SDS011;38940;50.096;4.012;2023-04-06T08:44:45;16.48;;;7.65;;
53056;SDS011;38940;50.096;4.012;2023-04-06T08:47:12;14.77;;;7.80;;
53056;SDS011;38940;50.096;4.012;2023-04-06T08:49:38;17.37;;;8.40;;
53056;SDS011;38940;50.096;4.012;2023-04-06T08:52:06;17.33;;;7.95;;
53056;SDS011;38940;50.096;4.012;2023-04-06T08:54:33;15.70;;;8.10;;
53056;SDS011;38940;50.096;4.012;2023-04-06T08:56:59;13.47;;;7.63;;
53056;SDS011;38940;50.096;4.012;2023-04-06T08:59:26;11.82;;;7.15;;
53056;SDS011;38940;50.096;4.012;2023-04-06T09:01:52;12.77;;;6.93;;
53056;SDS011;38940;50.096;4.012;2023-04-06T09:04:18;14.57;;;7.85;;
53056;SDS011;38940;50.096;4.012;2023-04-06T09:06:44;15.50;;;8.15;;
53056;SDS011;38940;50.096;4.012;2023-04-06T09:09:10;13.07;;;7.50;;
53056;SDS011;38940;50.096;4.012;2023-04-06T09:11:46;12.45;;;7.20;;
53056;SDS011;38940;50.096;4.012;2023-04-06T09:14:12;11.38;;;6.88;;
53056;SDS011;38940;50.096;4.012;2023-04-06T09:16:40;13.77;;;7.53;;
53056;SDS011;38940;50.096;4.012;2023-04-06T09:19:07;11.10;;;6.57;;
53056;SDS011;38940;50.096;4.012;2023-04-06T09:21:33;12.07;;;6.80;;
53056;SDS011;38940;50.096;4.012;2023-04-06T09:23:59;13.02;;;7.07;;
53056;SDS011;38940;50.096;4.012;2023-04-06T09:26:25;13.70;;;7.00;;
53056;SDS011;38940;50.096;4.012;2023-04-06T09:28:54;15.88;;;7.35;;
53056;SDS011;38940;50.096;4.012;2023-04-06T09:31:25;12.97;;;7.37;;
53056;SDS011;38940;50.096;4.012;2023-04-06T09:33:51;12.88;;;6.80;;
53056;SDS011;38940;50.096;4.012;2023-04-06T09:36:18;13.20;;;6.53;;
53056;SDS011;38940;50.096;4.012;2023-04-06T09:38:57;13.75;;;6.85;;
53056;SDS011;38940;50.096;4.012;2023-04-06T09:41:28;12.55;;;6.78;;
53056;SDS011;38940;50.096;4.012;2023-04-06T09:44:12;11.02;;;6.65;;
53056;SDS011;38940;50.096;4.012;2023-04-06T09:46:39;10.88;;;6.85;;
53056;SDS011;38940;50.096;4.012;2023-04-06T09:49:06;11.38;;;7.03;;
53056;SDS011;38940;50.096;4.012;2023-04-06T09:51:55;13.43;;;7.22;;
53056;SDS011;38940;50.096;4.012;2023-04-06T09:54:19;11.52;;;5.82;;
53056;SDS011;38940;50.096;4.012;2023-04-06T09:56:47;11.48;;;6.30;;
53056;SDS011;38940;50.096;4.012;2023-04-06T09:59:14;10.73;;;6.60;;
53056;SDS011;38940;50.096;4.012;2023-04-06T10:01:43;11.68;;;6.72;;
53056;SDS011;38940;50.096;4.012;2023-04-06T10:04:13;18.67;;;9.30;;
53056;SDS011;38940;50.096;4.012;2023-04-06T10:06:44;20.25;;;9.75;;
53056;SDS011;38940;50.096;4.012;2023-04-06T10:09:13;13.35;;;6.97;;
53056;SDS011;38940;50.096;4.012;2023-04-06T10:11:39;10.80;;;6.20;;
53056;SDS011;38940;50.096;4.012;2023-04-06T10:14:05;12.43;;;6.37;;
53056;SDS011;38940;50.096;4.012;2023-04-06T10:16:31;11.00;;;5.70;;
53056;SDS011;38940;50.096;4.012;2023-04-06T10:19:02;11.63;;;6.50;;
53056;SDS011;38940;50.096;4.012;2023-04-06T10:21:30;11.10;;;6.32;;
53056;SDS011;38940;50.096;4.012;2023-04-06T10:23:59;11.50;;;6.00;;
53056;SDS011;38940;50.096;4.012;2023-04-06T10:26:25;10.50;;;5.78;;
53056;SDS011;38940;50.096;4.012;2023-04-06T10:28:51;10.02;;;5.80;;
53056;SDS011;38940;50.096;4.012;2023-04-06T10:31:25;11.05;;;6.10;;
53056;SDS011;38940;50.096;4.012;2023-04-06T10:36:22;12.30;;;5.80;;
53056;SDS011;38940;50.096;4.012;2023-04-06T10:38:53;9.60;;;5.63;;
53056;SDS011;38940;50.096;4.012;2023-04-06T10:41:20;9.27;;;5.30;;
53056;SDS011;38940;50.096;4.012;2023-04-06T10:43:46;10.98;;;5.95;;
53056;SDS011;38940;50.096;4.012;2023-04-06T10:46:24;10.45;;;5.65;;
53056;SDS011;38940;50.096;4.012;2023-04-06T10:48:50;10.95;;;6.28;;
53056;SDS011;38940;50.096;4.012;2023-04-06T10:51:17;10.20;;;5.75;;
53056;SDS011;38940;50.096;4.012;2023-04-06T10:53:44;9.63;;;5.32;;
53056;SDS011;38940;50.096;4.012;2023-04-06T10:56:12;11.40;;;5.30;;
53056;SDS011;38940;50.096;4.012;2023-04-06T10:58:38;11.10;;;5.23;;
53056;SDS011;38940;50.096;4.012;2023-04-06T11:01:10;10.35;;;5.95;;
53056;SDS011;38940;50.096;4.012;2023-04-06T11:03:43;11.50;;;6.20;;
53056;SDS011;38940;50.096;4.012;2023-04-06T11:06:10;11.17;;;6.47;;
53056;SDS011;38940;50.096;4.012;2023-04-06T11:08:36;8.77;;;5.63;;
53056;SDS011;38940;50.096;4.012;2023-04-06T11:13:41;12.63;;;6.38;;
53056;SDS011;38940;50.096;4.012;2023-04-06T11:16:11;17.27;;;7.83;;
53056;SDS011;38940;50.096;4.012;2023-04-06T11:18:38;10.60;;;5.65;;
53056;SDS011;38940;50.096;4.012;2023-04-06T11:21:04;14.52;;;6.10;;
53056;SDS011;38940;50.096;4.012;2023-04-06T11:23:30;17.97;;;7.67;;
53056;SDS011;38940;50.096;4.012;2023-04-06T11:25:56;10.75;;;6.20;;
53056;SDS011;38940;50.096;4.012;2023-04-06T11:28:22;12.60;;;7.03;;
53056;SDS011;38940;50.096;4.012;2023-04-06T11:30:48;9.38;;;6.03;;
53056;SDS011;38940;50.096;4.012;2023-04-06T11:33:21;16.83;;;7.40;;
53056;SDS011;38940;50.096;4.012;2023-04-06T11:35:50;16.10;;;7.65;;
53056;SDS011;38940;50.096;4.012;2023-04-06T11:38:17;11.90;;;6.07;;
53056;SDS011;38940;50.096;4.012;2023-04-06T11:40:44;11.23;;;6.60;;
53056;SDS011;38940;50.096;4.012;2023-04-06T11:43:13;12.25;;;5.93;;
53056;SDS011;38940;50.096;4.012;2023-04-06T11:45:43;12.70;;;7.00;;
53056;SDS011;38940;50.096;4.012;2023-04-06T11:48:19;12.57;;;6.55;;
53056;SDS011;38940;50.096;4.012;2023-04-06T11:50:46;11.38;;;6.25;;
53056;SDS011;38940;50.096;4.012;2023-04-06T11:53:13;13.07;;;6.97;;
53056;SDS011;38940;50.096;4.012;2023-04-06T11:55:39;11.00;;;6.45;;
53056;SDS011;38940;50.096;4.012;2023-04-06T11:58:06;15.73;;;6.40;;
53056;SDS011;38940;50.096;4.012;2023-04-06T12:00:32;14.60;;;7.40;;
53056;SDS011;38940;50.096;4.012;2023-04-06T12:02:59;13.50;;;7.80;;
53056;SDS011;38940;50.096;4.012;2023-04-06T12:05:26;13.43;;;7.17;;
53056;SDS011;38940;50.096;4.012;2023-04-06T12:07:52;11.57;;;6.65;;
53056;SDS011;38940;50.096;4.012;2023-04-06T12:10:18;11.63;;;6.93;;
53056;SDS011;38940;50.096;4.012;2023-04-06T12:12:44;11.98;;;6.95;;
53056;SDS011;38940;50.096;4.012;2023-04-06T12:15:10;15.30;;;7.25;;
53056;SDS011;38940;50.096;4.012;2023-04-06T12:17:36;13.52;;;7.07;;
53056;SDS011;38940;50.096;4.012;2023-04-06T12:20:03;15.80;;;7.82;;
53056;SDS011;38940;50.096;4.012;2023-04-06T12:22:29;13.13;;;7.65;;
53056;SDS011;38940;50.096;4.012;2023-04-06T12:24:55;11.60;;;6.90;;
53056;SDS011;38940;50.096;4.012;2023-04-06T12:27:21;14.35;;;7.40;;
53056;SDS011;38940;50.096;4.012;2023-04-06T12:29:47;17.40;;;8.00;;
53056;SDS011;38940;50.096;4.012;2023-04-06T12:32:13;10.83;;;6.93;;
53056;SDS011;38940;50.096;4.012;2023-04-06T12:34:39;14.07;;;8.05;;
53056;SDS011;38940;50.096;4.012;2023-04-06T12:37:05;10.40;;;6.65;;
53056;SDS011;38940;50.096;4.012;2023-04-06T12:39:32;14.02;;;7.75;;
53056;SDS011;38940;50.096;4.012;2023-04-06T12:41:58;12.73;;;7.77;;
53056;SDS011;38940;50.096;4.012;2023-04-06T12:44:23;12.88;;;7.55;;
53056;SDS011;38940;50.096;4.012;2023-04-06T12:46:50;11.80;;;7.40;;
53056;SDS011;38940;50.096;4.012;2023-04-06T12:49:17;12.75;;;7.15;;
53056;SDS011;38940;50.096;4.012;2023-04-06T12:51:44;11.15;;;6.97;;
53056;SDS011;38940;50.096;4.012;2023-04-06T12:54:10;14.80;;;7.13;;
53056;SDS011;38940;50.096;4.012;2023-04-06T12:56:36;16.08;;;7.63;;
53056;SDS011;38940;50.096;4.012;2023-04-06T12:59:02;11.03;;;7.37;;
53056;SDS011;38940;50.096;4.012;2023-04-06T13:01:28;11.57;;;7.67;;
53056;SDS011;38940;50.096;4.012;2023-04-06T13:03:55;11.53;;;6.40;;
53056;SDS011;38940;50.096;4.012;2023-04-06T13:06:22;14.95;;;7.18;;
53056;SDS011;38940;50.096;4.012;2023-04-06T13:08:48;10.48;;;7.30;;
53056;SDS011;38940;50.096;4.012;2023-04-06T13:11:15;12.65;;;7.88;;
53056;SDS011;38940;50.096;4.012;2023-04-06T13:13:41;11.30;;;6.35;;
53056;SDS011;38940;50.096;4.012;2023-04-06T13:16:08;11.68;;;7.50;;
53056;SDS011;38940;50.096;4.012;2023-04-06T13:18:34;12.60;;;7.05;;
53056;SDS011;38940;50.096;4.012;2023-04-06T13:21:01;12.73;;;7.15;;
53056;SDS011;38940;50.096;4.012;2023-04-06T13:23:27;12.02;;;7.57;;
53056;SDS011;38940;50.096;4.012;2023-04-06T13:25:59;13.70;;;7.13;;
53056;SDS011;38940;50.096;4.012;2023-04-06T13:28:25;12.48;;;6.82;;
53056;SDS011;38940;50.096;4.012;2023-04-06T13:30:52;12.20;;;7.00;;
53056;SDS011;38940;50.096;4.012;2023-04-06T13:33:18;13.20;;;7.65;;
53056;SDS011;38940;50.096;4.012;2023-04-06T13:35:44;10.77;;;6.60;;
53056;SDS011;38940;50.096;4.012;2023-04-06T13:38:10;10.43;;;6.27;;
53056;SDS011;38940;50.096;4.012;2023-04-06T13:40:40;10.15;;;6.47;;
53056;SDS011;38940;50.096;4.012;2023-04-06T13:43:06;12.05;;;7.38;;
53056;SDS011;38940;50.096;4.012;2023-04-06T13:45:32;9.55;;;6.00;;
53056;SDS011;38940;50.096;4.012;2023-04-06T13:47:58;10.63;;;6.20;;
53056;SDS011;38940;50.096;4.012;2023-04-06T13:50:27;10.03;;;6.47;;
53056;SDS011;38940;50.096;4.012;2023-04-06T13:52:54;10.45;;;6.40;;
53056;SDS011;38940;50.096;4.012;2023-04-06T13:55:20;13.52;;;7.22;;
53056;SDS011;38940;50.096;4.012;2023-04-06T13:57:45;11.90;;;7.05;;
53056;SDS011;38940;50.096;4.012;2023-04-06T14:00:12;14.67;;;8.27;;
53056;SDS011;38940;50.096;4.012;2023-04-06T14:02:39;15.43;;;8.23;;
53056;SDS011;38940;50.096;4.012;2023-04-06T14:05:05;18.30;;;8.15;;
53056;SDS011;38940;50.096;4.012;2023-04-06T14:07:31;13.25;;;7.90;;
53056;SDS011;38940;50.096;4.012;2023-04-06T14:09:57;13.80;;;8.07;;
53056;SDS011;38940;50.096;4.012;2023-04-06T14:12:23;13.02;;;7.38;;
53056;SDS011;38940;50.096;4.012;2023-04-06T14:14:50;15.50;;;8.18;;
53056;SDS011;38940;50.096;4.012;2023-04-06T14:17:16;11.48;;;7.47;;
53056;SDS011;38940;50.096;4.012;2023-04-06T14:19:42;14.55;;;8.32;;
53056;SDS011;38940;50.096;4.012;2023-04-06T14:22:08;11.03;;;7.77;;
53056;SDS011;38940;50.096;4.012;2023-04-06T14:24:34;13.40;;;7.43;;
53056;SDS011;38940;50.096;4.012;2023-04-06T14:27:00;14.02;;;7.50;;
53056;SDS011;38940;50.096;4.012;2023-04-06T14:29:27;16.80;;;7.53;;
53056;SDS011;38940;50.096;4.012;2023-04-06T14:31:53;12.53;;;6.83;;
53056;SDS011;38940;50.096;4.012;2023-04-06T14:34:25;13.00;;;8.00;;
53056;SDS011;38940;50.096;4.012;2023-04-06T14:36:51;12.77;;;6.90;;